Terminal Aerodrome Forecast
Issued by NWS

Home | Current Version | Previous Version | Text Only | Print | Product List | Glossary On
Versions: 1 2 3 4 5 6 7 8 9 10 11 12 13
098
FTPA31 PHFO 231737
TAFHJH
TAF
PHJH 231737Z 2318/2418 04010KT P6SM VCSH FEW020 SCT045
      TEMPO 2318/2320 -SHRA BKN045
     FM232000 05013G22KT P6SM FEW020 SCT045
     FM240500 05008KT P6SM VCSH SCT020 BKN045
      AMD NOT SKED 2404/2416=

USA.gov is the U.S. government's official web portal to all federal, state and local government web resources and services.